sensor_id;sensor_type;location;lat;lon;timestamp;P1;durP1;ratioP1;P2;durP2;ratioP2
64712;SDS011;51140;45.340;5.980;2023-08-08T00:01:01;2.33;;;0.90;;
64712;SDS011;51140;45.340;5.980;2023-08-08T00:03:27;1.92;;;0.70;;
64712;SDS011;51140;45.340;5.980;2023-08-08T00:05:52;2.15;;;0.80;;
64712;SDS011;51140;45.340;5.980;2023-08-08T00:08:17;4.25;;;0.70;;
64712;SDS011;51140;45.340;5.980;2023-08-08T00:10:43;2.50;;;0.88;;
64712;SDS011;51140;45.340;5.980;2023-08-08T00:13:08;1.98;;;0.80;;
64712;SDS011;51140;45.340;5.980;2023-08-08T00:15:34;2.45;;;0.70;;
64712;SDS011;51140;45.340;5.980;2023-08-08T00:17:59;1.90;;;0.80;;
64712;SDS011;51140;45.340;5.980;2023-08-08T00:20:24;4.18;;;0.80;;
64712;SDS011;51140;45.340;5.980;2023-08-08T00:22:50;2.22;;;0.85;;
64712;SDS011;51140;45.340;5.980;2023-08-08T00:25:15;2.92;;;1.00;;
64712;SDS011;51140;45.340;5.980;2023-08-08T00:27:41;1.67;;;0.75;;
64712;SDS011;51140;45.340;5.980;2023-08-08T00:30:09;1.23;;;0.68;;
64712;SDS011;51140;45.340;5.980;2023-08-08T00:32:35;2.45;;;0.90;;
64712;SDS011;51140;45.340;5.980;2023-08-08T00:35:01;2.33;;;0.85;;
64712;SDS011;51140;45.340;5.980;2023-08-08T00:37:26;2.83;;;0.70;;
64712;SDS011;51140;45.340;5.980;2023-08-08T00:39:51;2.60;;;0.90;;
64712;SDS011;51140;45.340;5.980;2023-08-08T00:42:17;2.83;;;0.80;;
64712;SDS011;51140;45.340;5.980;2023-08-08T00:44:42;2.40;;;0.77;;
64712;SDS011;51140;45.340;5.980;2023-08-08T00:47:08;3.75;;;0.77;;
64712;SDS011;51140;45.340;5.980;2023-08-08T00:49:34;2.28;;;0.70;;
64712;SDS011;51140;45.340;5.980;2023-08-08T00:52:00;1.92;;;0.70;;
64712;SDS011;51140;45.340;5.980;2023-08-08T00:54:26;2.58;;;1.00;;
64712;SDS011;51140;45.340;5.980;2023-08-08T00:56:51;1.55;;;0.65;;
64712;SDS011;51140;45.340;5.980;2023-08-08T00:59:16;2.90;;;1.05;;
64712;SDS011;51140;45.340;5.980;2023-08-08T01:01:44;1.83;;;0.75;;
64712;SDS011;51140;45.340;5.980;2023-08-08T01:04:09;2.72;;;0.90;;
64712;SDS011;51140;45.340;5.980;2023-08-08T01:07:20;2.40;;;0.63;;
64712;SDS011;51140;45.340;5.980;2023-08-08T01:12:32;2.25;;;0.70;;
64712;SDS011;51140;45.340;5.980;2023-08-08T01:14:58;3.00;;;0.70;;
64712;SDS011;51140;45.340;5.980;2023-08-08T01:17:24;2.97;;;0.63;;
64712;SDS011;51140;45.340;5.980;2023-08-08T01:19:50;1.88;;;0.70;;
64712;SDS011;51140;45.340;5.980;2023-08-08T01:22:28;3.67;;;0.80;;
64712;SDS011;51140;45.340;5.980;2023-08-08T01:25:00;2.60;;;0.80;;
64712;SDS011;51140;45.340;5.980;2023-08-08T01:27:26;3.17;;;0.90;;
64712;SDS011;51140;45.340;5.980;2023-08-08T01:29:52;2.70;;;0.68;;
64712;SDS011;51140;45.340;5.980;2023-08-08T01:32:18;2.38;;;0.90;;
64712;SDS011;51140;45.340;5.980;2023-08-08T01:34:43;3.58;;;0.90;;
64712;SDS011;51140;45.340;5.980;2023-08-08T01:37:23;1.35;;;0.70;;
64712;SDS011;51140;45.340;5.980;2023-08-08T01:39:54;1.38;;;0.70;;
64712;SDS011;51140;45.340;5.980;2023-08-08T01:42:23;1.77;;;0.63;;
64712;SDS011;51140;45.340;5.980;2023-08-08T01:44:49;1.52;;;0.73;;
64712;SDS011;51140;45.340;5.980;2023-08-08T01:47:15;2.38;;;0.75;;
64712;SDS011;51140;45.340;5.980;2023-08-08T01:49:40;2.45;;;0.75;;
64712;SDS011;51140;45.340;5.980;2023-08-08T01:52:06;5.80;;;0.90;;
64712;SDS011;51140;45.340;5.980;2023-08-08T01:54:31;3.38;;;0.85;;
64712;SDS011;51140;45.340;5.980;2023-08-08T01:56:57;2.53;;;0.70;;
64712;SDS011;51140;45.340;5.980;2023-08-08T01:59:22;2.10;;;0.80;;
64712;SDS011;51140;45.340;5.980;2023-08-08T02:01:48;3.08;;;0.95;;
64712;SDS011;51140;45.340;5.980;2023-08-08T02:04:13;2.67;;;0.82;;
64712;SDS011;51140;45.340;5.980;2023-08-08T02:06:39;1.88;;;0.65;;
64712;SDS011;51140;45.340;5.980;2023-08-08T02:09:04;3.05;;;0.90;;
64712;SDS011;51140;45.340;5.980;2023-08-08T02:11:29;2.35;;;0.80;;
64712;SDS011;51140;45.340;5.980;2023-08-08T02:13:55;2.10;;;0.65;;
64712;SDS011;51140;45.340;5.980;2023-08-08T02:16:20;3.45;;;1.10;;
64712;SDS011;51140;45.340;5.980;2023-08-08T02:18:45;3.75;;;1.10;;
64712;SDS011;51140;45.340;5.980;2023-08-08T02:21:11;3.80;;;1.23;;
64712;SDS011;51140;45.340;5.980;2023-08-08T02:23:36;4.03;;;1.17;;
64712;SDS011;51140;45.340;5.980;2023-08-08T02:26:02;2.95;;;0.88;;
64712;SDS011;51140;45.340;5.980;2023-08-08T02:28:27;4.88;;;1.13;;
64712;SDS011;51140;45.340;5.980;2023-08-08T02:30:53;3.35;;;1.00;;
64712;SDS011;51140;45.340;5.980;2023-08-08T02:33:18;6.05;;;1.23;;
64712;SDS011;51140;45.340;5.980;2023-08-08T02:35:44;4.13;;;1.13;;
64712;SDS011;51140;45.340;5.980;2023-08-08T02:38:09;4.15;;;1.38;;
64712;SDS011;51140;45.340;5.980;2023-08-08T02:40:35;5.25;;;1.10;;
64712;SDS011;51140;45.340;5.980;2023-08-08T02:43:00;4.63;;;1.63;;
64712;SDS011;51140;45.340;5.980;2023-08-08T02:45:26;6.30;;;1.80;;
64712;SDS011;51140;45.340;5.980;2023-08-08T02:47:51;7.50;;;2.20;;
64712;SDS011;51140;45.340;5.980;2023-08-08T02:50:16;6.72;;;2.42;;
64712;SDS011;51140;45.340;5.980;2023-08-08T02:52:42;6.35;;;2.28;;
64712;SDS011;51140;45.340;5.980;2023-08-08T02:55:07;8.25;;;2.15;;
64712;SDS011;51140;45.340;5.980;2023-08-08T02:57:33;4.82;;;1.80;;
64712;SDS011;51140;45.340;5.980;2023-08-08T02:59:59;6.18;;;2.10;;
64712;SDS011;51140;45.340;5.980;2023-08-08T03:02:24;4.95;;;1.73;;
64712;SDS011;51140;45.340;5.980;2023-08-08T03:04:49;6.32;;;1.70;;
64712;SDS011;51140;45.340;5.980;2023-08-08T03:07:15;4.65;;;1.63;;
64712;SDS011;51140;45.340;5.980;2023-08-08T03:09:40;6.75;;;1.42;;
64712;SDS011;51140;45.340;5.980;2023-08-08T03:12:06;4.30;;;1.33;;
64712;SDS011;51140;45.340;5.980;2023-08-08T03:14:32;5.20;;;1.48;;
64712;SDS011;51140;45.340;5.980;2023-08-08T03:16:58;4.78;;;1.70;;
64712;SDS011;51140;45.340;5.980;2023-08-08T03:19:24;7.10;;;1.70;;
64712;SDS011;51140;45.340;5.980;2023-08-08T03:21:49;6.20;;;1.80;;
64712;SDS011;51140;45.340;5.980;2023-08-08T03:24:14;5.28;;;1.90;;
64712;SDS011;51140;45.340;5.980;2023-08-08T03:26:40;4.07;;;1.60;;
64712;SDS011;51140;45.340;5.980;2023-08-08T03:29:05;5.53;;;1.80;;
64712;SDS011;51140;45.340;5.980;2023-08-08T03:31:34;5.38;;;1.90;;
64712;SDS011;51140;45.340;5.980;2023-08-08T03:34:00;5.55;;;1.90;;
64712;SDS011;51140;45.340;5.980;2023-08-08T03:36:25;4.90;;;1.65;;
64712;SDS011;51140;45.340;5.980;2023-08-08T03:38:50;4.25;;;1.65;;
64712;SDS011;51140;45.340;5.980;2023-08-08T03:41:16;4.85;;;1.75;;
64712;SDS011;51140;45.340;5.980;2023-08-08T03:43:41;5.63;;;2.25;;
64712;SDS011;51140;45.340;5.980;2023-08-08T03:46:07;5.47;;;1.92;;
64712;SDS011;51140;45.340;5.980;2023-08-08T03:48:32;7.47;;;1.95;;
64712;SDS011;51140;45.340;5.980;2023-08-08T03:50:58;5.35;;;1.85;;
64712;SDS011;51140;45.340;5.980;2023-08-08T03:53:23;5.90;;;2.08;;
64712;SDS011;51140;45.340;5.980;2023-08-08T03:55:49;5.55;;;1.98;;
64712;SDS011;51140;45.340;5.980;2023-08-08T03:58:14;5.78;;;1.73;;
64712;SDS011;51140;45.340;5.980;2023-08-08T04:00:39;3.92;;;1.38;;
64712;SDS011;51140;45.340;5.980;2023-08-08T04:03:11;4.97;;;1.60;;
64712;SDS011;51140;45.340;5.980;2023-08-08T04:05:41;7.07;;;2.10;;
64712;SDS011;51140;45.340;5.980;2023-08-08T04:08:11;5.55;;;2.17;;
64712;SDS011;51140;45.340;5.980;2023-08-08T04:10:36;6.78;;;2.08;;
64712;SDS011;51140;45.340;5.980;2023-08-08T04:13:02;6.10;;;2.50;;
64712;SDS011;51140;45.340;5.980;2023-08-08T04:15:27;7.55;;;2.13;;
64712;SDS011;51140;45.340;5.980;2023-08-08T04:17:52;5.90;;;2.30;;
64712;SDS011;51140;45.340;5.980;2023-08-08T04:20:18;5.82;;;2.30;;
64712;SDS011;51140;45.340;5.980;2023-08-08T04:22:43;6.65;;;2.28;;
64712;SDS011;51140;45.340;5.980;2023-08-08T04:25:08;5.82;;;2.35;;
64712;SDS011;51140;45.340;5.980;2023-08-08T04:27:34;6.32;;;2.58;;
64712;SDS011;51140;45.340;5.980;2023-08-08T04:29:59;5.85;;;2.50;;
64712;SDS011;51140;45.340;5.980;2023-08-08T04:32:24;6.85;;;3.05;;
64712;SDS011;51140;45.340;5.980;2023-08-08T04:34:50;7.47;;;2.33;;
64712;SDS011;51140;45.340;5.980;2023-08-08T04:37:15;5.95;;;2.50;;
64712;SDS011;51140;45.340;5.980;2023-08-08T04:39:41;7.30;;;3.17;;
64712;SDS011;51140;45.340;5.980;2023-08-08T04:42:06;6.40;;;2.55;;
64712;SDS011;51140;45.340;5.980;2023-08-08T04:44:31;8.05;;;2.83;;
64712;SDS011;51140;45.340;5.980;2023-08-08T04:46:57;8.43;;;2.78;;
64712;SDS011;51140;45.340;5.980;2023-08-08T04:49:22;8.10;;;2.97;;
64712;SDS011;51140;45.340;5.980;2023-08-08T04:51:47;6.97;;;3.05;;
64712;SDS011;51140;45.340;5.980;2023-08-08T04:54:13;7.72;;;2.63;;
64712;SDS011;51140;45.340;5.980;2023-08-08T04:56:38;7.45;;;2.80;;
64712;SDS011;51140;45.340;5.980;2023-08-08T04:59:03;6.40;;;2.72;;
64712;SDS011;51140;45.340;5.980;2023-08-08T05:01:29;10.60;;;2.92;;
64712;SDS011;51140;45.340;5.980;2023-08-08T05:03:54;5.80;;;2.42;;
64712;SDS011;51140;45.340;5.980;2023-08-08T05:06:20;8.25;;;3.40;;
64712;SDS011;51140;45.340;5.980;2023-08-08T05:08:45;9.10;;;3.03;;
64712;SDS011;51140;45.340;5.980;2023-08-08T05:11:10;7.72;;;3.03;;
64712;SDS011;51140;45.340;5.980;2023-08-08T05:13:36;6.32;;;2.90;;
64712;SDS011;51140;45.340;5.980;2023-08-08T05:16:01;9.15;;;3.60;;
64712;SDS011;51140;45.340;5.980;2023-08-08T05:18:26;6.93;;;3.13;;
64712;SDS011;51140;45.340;5.980;2023-08-08T05:20:52;9.35;;;3.15;;
64712;SDS011;51140;45.340;5.980;2023-08-08T05:23:17;6.43;;;2.88;;
64712;SDS011;51140;45.340;5.980;2023-08-08T05:25:42;9.75;;;3.47;;
64712;SDS011;51140;45.340;5.980;2023-08-08T05:28:08;6.93;;;3.28;;
64712;SDS011;51140;45.340;5.980;2023-08-08T05:30:33;9.25;;;3.83;;
64712;SDS011;51140;45.340;5.980;2023-08-08T05:32:59;7.88;;;3.70;;
64712;SDS011;51140;45.340;5.980;2023-08-08T05:35:24;7.18;;;3.58;;
64712;SDS011;51140;45.340;5.980;2023-08-08T05:37:50;8.25;;;3.75;;
64712;SDS011;51140;45.340;5.980;2023-08-08T05:40:15;7.18;;;3.40;;
64712;SDS011;51140;45.340;5.980;2023-08-08T05:42:41;8.48;;;3.88;;
64712;SDS011;51140;45.340;5.980;2023-08-08T05:45:06;8.50;;;3.47;;
64712;SDS011;51140;45.340;5.980;2023-08-08T05:47:32;8.32;;;3.42;;
64712;SDS011;51140;45.340;5.980;2023-08-08T05:49:58;10.25;;;4.97;;
64712;SDS011;51140;45.340;5.980;2023-08-08T05:52:23;7.88;;;4.32;;
64712;SDS011;51140;45.340;5.980;2023-08-08T05:54:49;9.93;;;5.07;;
64712;SDS011;51140;45.340;5.980;2023-08-08T05:57:14;9.57;;;5.20;;
64712;SDS011;51140;45.340;5.980;2023-08-08T05:59:40;9.35;;;5.28;;
64712;SDS011;51140;45.340;5.980;2023-08-08T06:02:05;10.60;;;5.60;;
64712;SDS011;51140;45.340;5.980;2023-08-08T06:04:31;13.10;;;5.78;;
64712;SDS011;51140;45.340;5.980;2023-08-08T06:06:56;13.13;;;5.78;;
64712;SDS011;51140;45.340;5.980;2023-08-08T06:09:21;11.15;;;5.53;;
64712;SDS011;51140;45.340;5.980;2023-08-08T06:11:47;11.85;;;6.03;;
64712;SDS011;51140;45.340;5.980;2023-08-08T06:14:13;12.50;;;6.13;;
64712;SDS011;51140;45.340;5.980;2023-08-08T06:16:38;13.10;;;6.90;;
64712;SDS011;51140;45.340;5.980;2023-08-08T06:19:03;11.85;;;5.50;;
64712;SDS011;51140;45.340;5.980;2023-08-08T06:21:29;9.93;;;5.25;;
64712;SDS011;51140;45.340;5.980;2023-08-08T06:23:54;9.63;;;4.72;;
64712;SDS011;51140;45.340;5.980;2023-08-08T06:26:23;9.68;;;5.00;;
64712;SDS011;51140;45.340;5.980;2023-08-08T06:28:48;10.35;;;5.25;;
64712;SDS011;51140;45.340;5.980;2023-08-08T06:31:14;9.45;;;4.95;;
64712;SDS011;51140;45.340;5.980;2023-08-08T06:33:39;11.48;;;5.20;;
64712;SDS011;51140;45.340;5.980;2023-08-08T06:36:05;11.63;;;6.10;;
64712;SDS011;51140;45.340;5.980;2023-08-08T06:38:30;12.60;;;6.45;;
64712;SDS011;51140;45.340;5.980;2023-08-08T06:40:59;11.40;;;6.82;;
64712;SDS011;51140;45.340;5.980;2023-08-08T06:43:25;12.15;;;6.50;;
64712;SDS011;51140;45.340;5.980;2023-08-08T06:45:50;12.45;;;6.95;;
64712;SDS011;51140;45.340;5.980;2023-08-08T06:48:16;11.75;;;6.60;;
64712;SDS011;51140;45.340;5.980;2023-08-08T06:50:41;10.48;;;5.80;;
64712;SDS011;51140;45.340;5.980;2023-08-08T06:53:06;10.20;;;4.93;;
64712;SDS011;51140;45.340;5.980;2023-08-08T06:55:32;8.23;;;4.47;;
64712;SDS011;51140;45.340;5.980;2023-08-08T06:57:57;9.10;;;4.90;;
64712;SDS011;51140;45.340;5.980;2023-08-08T07:00:22;10.90;;;5.10;;
64712;SDS011;51140;45.340;5.980;2023-08-08T07:02:48;9.50;;;5.03;;
64712;SDS011;51140;45.340;5.980;2023-08-08T07:05:13;11.07;;;5.70;;
64712;SDS011;51140;45.340;5.980;2023-08-08T07:07:39;10.48;;;6.20;;
64712;SDS011;51140;45.340;5.980;2023-08-08T07:10:04;11.40;;;6.22;;
64712;SDS011;51140;45.340;5.980;2023-08-08T07:12:31;13.30;;;6.25;;
64712;SDS011;51140;45.340;5.980;2023-08-08T07:14:56;11.07;;;5.68;;
64712;SDS011;51140;45.340;5.980;2023-08-08T07:17:22;10.35;;;5.63;;
64712;SDS011;51140;45.340;5.980;2023-08-08T07:19:47;11.20;;;5.45;;
64712;SDS011;51140;45.340;5.980;2023-08-08T07:22:12;12.18;;;5.93;;
64712;SDS011;51140;45.340;5.980;2023-08-08T07:24:38;11.35;;;5.75;;
64712;SDS011;51140;45.340;5.980;2023-08-08T07:27:04;13.32;;;5.82;;
64712;SDS011;51140;45.340;5.980;2023-08-08T07:29:29;8.98;;;4.93;;
64712;SDS011;51140;45.340;5.980;2023-08-08T07:31:57;11.88;;;5.40;;
64712;SDS011;51140;45.340;5.980;2023-08-08T07:34:23;11.48;;;5.05;;
64712;SDS011;51140;45.340;5.980;2023-08-08T07:36:48;10.63;;;5.28;;
64712;SDS011;51140;45.340;5.980;2023-08-08T07:39:14;9.75;;;4.90;;
64712;SDS011;51140;45.340;5.980;2023-08-08T07:41:40;8.75;;;4.65;;
64712;SDS011;51140;45.340;5.980;2023-08-08T07:44:05;7.80;;;4.28;;
64712;SDS011;51140;45.340;5.980;2023-08-08T07:46:31;8.65;;;4.43;;
64712;SDS011;51140;45.340;5.980;2023-08-08T07:48:57;9.52;;;4.97;;
64712;SDS011;51140;45.340;5.980;2023-08-08T07:51:24;11.38;;;4.85;;
64712;SDS011;51140;45.340;5.980;2023-08-08T07:53:50;9.35;;;4.45;;
64712;SDS011;51140;45.340;5.980;2023-08-08T07:56:15;8.32;;;4.63;;
64712;SDS011;51140;45.340;5.980;2023-08-08T07:58:41;8.88;;;5.22;;
64712;SDS011;51140;45.340;5.980;2023-08-08T08:01:06;9.05;;;4.85;;
64712;SDS011;51140;45.340;5.980;2023-08-08T08:03:31;10.15;;;5.55;;
64712;SDS011;51140;45.340;5.980;2023-08-08T08:05:57;10.35;;;5.65;;
64712;SDS011;51140;45.340;5.980;2023-08-08T08:08:22;10.07;;;5.68;;
64712;SDS011;51140;45.340;5.980;2023-08-08T08:10:49;10.00;;;6.03;;
64712;SDS011;51140;45.340;5.980;2023-08-08T08:13:16;8.90;;;5.75;;
64712;SDS011;51140;45.340;5.980;2023-08-08T08:15:41;12.10;;;6.18;;
64712;SDS011;51140;45.340;5.980;2023-08-08T08:18:07;10.73;;;5.57;;
64712;SDS011;51140;45.340;5.980;2023-08-08T08:20:33;8.40;;;5.28;;
64712;SDS011;51140;45.340;5.980;2023-08-08T08:22:59;11.07;;;5.78;;
64712;SDS011;51140;45.340;5.980;2023-08-08T08:25:24;10.27;;;5.80;;
64712;SDS011;51140;45.340;5.980;2023-08-08T08:27:49;9.45;;;5.88;;
64712;SDS011;51140;45.340;5.980;2023-08-08T08:30:15;9.02;;;5.20;;
64712;SDS011;51140;45.340;5.980;2023-08-08T08:32:41;10.35;;;5.18;;
64712;SDS011;51140;45.340;5.980;2023-08-08T08:35:07;9.57;;;5.20;;
64712;SDS011;51140;45.340;5.980;2023-08-08T08:37:33;7.35;;;4.65;;
64712;SDS011;51140;45.340;5.980;2023-08-08T08:39:59;8.85;;;4.47;;
64712;SDS011;51140;45.340;5.980;2023-08-08T08:42:26;9.70;;;5.40;;
64712;SDS011;51140;45.340;5.980;2023-08-08T08:44:54;9.07;;;5.43;;
64712;SDS011;51140;45.340;5.980;2023-08-08T08:47:22;8.93;;;5.03;;
64712;SDS011;51140;45.340;5.980;2023-08-08T08:49:49;8.30;;;5.30;;
64712;SDS011;51140;45.340;5.980;2023-08-08T08:52:17;9.30;;;5.65;;
64712;SDS011;51140;45.340;5.980;2023-08-08T08:54:43;9.73;;;5.93;;
64712;SDS011;51140;45.340;5.980;2023-08-08T08:57:09;9.15;;;5.65;;
64712;SDS011;51140;45.340;5.980;2023-08-08T08:59:34;9.27;;;5.80;;
64712;SDS011;51140;45.340;5.980;2023-08-08T09:02:00;9.80;;;5.53;;
64712;SDS011;51140;45.340;5.980;2023-08-08T09:04:27;11.45;;;6.05;;
64712;SDS011;51140;45.340;5.980;2023-08-08T09:06:53;11.80;;;6.28;;
64712;SDS011;51140;45.340;5.980;2023-08-08T09:09:19;15.23;;;6.47;;
64712;SDS011;51140;45.340;5.980;2023-08-08T09:11:50;10.75;;;6.20;;
64712;SDS011;51140;45.340;5.980;2023-08-08T09:14:23;11.55;;;6.47;;
64712;SDS011;51140;45.340;5.980;2023-08-08T09:16:49;9.73;;;5.78;;
64712;SDS011;51140;45.340;5.980;2023-08-08T09:19:16;11.02;;;5.45;;
64712;SDS011;51140;45.340;5.980;2023-08-08T09:21:45;12.45;;;5.45;;
64712;SDS011;51140;45.340;5.980;2023-08-08T09:24:11;10.98;;;5.32;;
64712;SDS011;51140;45.340;5.980;2023-08-08T09:26:36;9.52;;;5.03;;
64712;SDS011;51140;45.340;5.980;2023-08-08T09:29:02;10.73;;;4.80;;
64712;SDS011;51140;45.340;5.980;2023-08-08T09:31:28;8.85;;;4.50;;
64712;SDS011;51140;45.340;5.980;2023-08-08T09:33:56;7.40;;;4.15;;
64712;SDS011;51140;45.340;5.980;2023-08-08T09:36:23;9.63;;;4.20;;
64712;SDS011;51140;45.340;5.980;2023-08-08T09:38:48;8.85;;;3.67;;
64712;SDS011;51140;45.340;5.980;2023-08-08T09:41:14;8.80;;;3.65;;
64712;SDS011;51140;45.340;5.980;2023-08-08T09:43:42;8.05;;;3.53;;
64712;SDS011;51140;45.340;5.980;2023-08-08T09:46:09;6.70;;;3.03;;
64712;SDS011;51140;45.340;5.980;2023-08-08T09:48:35;5.57;;;2.75;;
64712;SDS011;51140;45.340;5.980;2023-08-08T09:51:03;8.35;;;3.10;;
64712;SDS011;51140;45.340;5.980;2023-08-08T09:53:29;6.65;;;3.33;;
64712;SDS011;51140;45.340;5.980;2023-08-08T09:55:55;7.70;;;3.00;;
64712;SDS011;51140;45.340;5.980;2023-08-08T09:58:21;7.60;;;2.88;;
64712;SDS011;51140;45.340;5.980;2023-08-08T10:00:50;9.68;;;2.60;;
64712;SDS011;51140;45.340;5.980;2023-08-08T10:03:15;5.82;;;2.50;;
64712;SDS011;51140;45.340;5.980;2023-08-08T10:05:41;6.22;;;2.30;;
64712;SDS011;51140;45.340;5.980;2023-08-08T10:08:07;5.93;;;2.20;;
64712;SDS011;51140;45.340;5.980;2023-08-08T10:10:33;6.13;;;1.67;;
64712;SDS011;51140;45.340;5.980;2023-08-08T10:12:58;5.10;;;2.00;;
64712;SDS011;51140;45.340;5.980;2023-08-08T10:15:27;3.83;;;1.55;;
64712;SDS011;51140;45.340;5.980;2023-08-08T10:17:54;6.40;;;1.55;;
64712;SDS011;51140;45.340;5.980;2023-08-08T10:20:21;7.40;;;1.60;;
64712;SDS011;51140;45.340;5.980;2023-08-08T10:22:46;3.85;;;1.33;;
64712;SDS011;51140;45.340;5.980;2023-08-08T10:25:22;4.93;;;1.60;;
64712;SDS011;51140;45.340;5.980;2023-08-08T10:27:48;3.92;;;1.40;;
64712;SDS011;51140;45.340;5.980;2023-08-08T10:30:13;4.90;;;1.70;;
64712;SDS011;51140;45.340;5.980;2023-08-08T10:32:41;4.78;;;1.55;;
64712;SDS011;51140;45.340;5.980;2023-08-08T10:35:08;4.10;;;1.60;;
64712;SDS011;51140;45.340;5.980;2023-08-08T10:37:36;4.85;;;1.85;;
64712;SDS011;51140;45.340;5.980;2023-08-08T10:40:05;6.05;;;1.80;;
64712;SDS011;51140;45.340;5.980;2023-08-08T10:42:32;6.28;;;1.75;;
64712;SDS011;51140;45.340;5.980;2023-08-08T10:45:05;3.95;;;1.60;;
64712;SDS011;51140;45.340;5.980;2023-08-08T10:47:34;7.88;;;1.98;;
64712;SDS011;51140;45.340;5.980;2023-08-08T10:52:32;5.25;;;1.80;;
64712;SDS011;51140;45.340;5.980;2023-08-08T10:55:00;4.63;;;1.73;;
64712;SDS011;51140;45.340;5.980;2023-08-08T10:57:27;6.97;;;1.70;;
64712;SDS011;51140;45.340;5.980;2023-08-08T10:59:53;4.32;;;1.60;;
64712;SDS011;51140;45.340;5.980;2023-08-08T11:02:19;5.72;;;1.30;;
64712;SDS011;51140;45.340;5.980;2023-08-08T11:04:46;3.50;;;1.30;;
64712;SDS011;51140;45.340;5.980;2023-08-08T11:07:14;3.50;;;1.17;;
64712;SDS011;51140;45.340;5.980;2023-08-08T11:09:40;3.33;;;1.35;;
64712;SDS011;51140;45.340;5.980;2023-08-08T11:12:12;3.10;;;1.27;;
64712;SDS011;51140;45.340;5.980;2023-08-08T11:14:38;3.85;;;1.45;;
64712;SDS011;51140;45.340;5.980;2023-08-08T11:17:04;3.55;;;1.13;;
64712;SDS011;51140;45.340;5.980;2023-08-08T11:19:30;3.72;;;1.48;;
64712;SDS011;51140;45.340;5.980;2023-08-08T11:21:57;4.80;;;1.23;;
64712;SDS011;51140;45.340;5.980;2023-08-08T11:24:22;3.80;;;1.05;;
64712;SDS011;51140;45.340;5.980;2023-08-08T11:26:47;2.95;;;0.90;;
64712;SDS011;51140;45.340;5.980;2023-08-08T11:29:13;3.60;;;1.13;;
64712;SDS011;51140;45.340;5.980;2023-08-08T11:31:38;2.13;;;0.75;;
64712;SDS011;51140;45.340;5.980;2023-08-08T11:34:04;1.77;;;0.60;;
64712;SDS011;51140;45.340;5.980;2023-08-08T11:36:30;3.70;;;0.90;;
64712;SDS011;51140;45.340;5.980;2023-08-08T11:38:57;1.90;;;0.75;;
64712;SDS011;51140;45.340;5.980;2023-08-08T11:41:26;2.25;;;0.90;;
64712;SDS011;51140;45.340;5.980;2023-08-08T11:43:51;3.95;;;0.80;;
64712;SDS011;51140;45.340;5.980;2023-08-08T11:46:18;3.03;;;0.88;;
64712;SDS011;51140;45.340;5.980;2023-08-08T11:48:47;3.10;;;0.90;;
64712;SDS011;51140;45.340;5.980;2023-08-08T11:51:14;2.65;;;1.08;;
64712;SDS011;51140;45.340;5.980;2023-08-08T11:53:50;1.83;;;0.80;;
64712;SDS011;51140;45.340;5.980;2023-08-08T11:56:17;1.95;;;0.80;;
64712;SDS011;51140;45.340;5.980;2023-08-08T11:58:44;2.03;;;0.80;;
64712;SDS011;51140;45.340;5.980;2023-08-08T12:01:10;2.20;;;0.75;;
64712;SDS011;51140;45.340;5.980;2023-08-08T12:03:39;2.78;;;0.98;;
64712;SDS011;51140;45.340;5.980;2023-08-08T12:06:13;2.50;;;1.17;;
64712;SDS011;51140;45.340;5.980;2023-08-08T12:08:40;3.50;;;1.10;;
64712;SDS011;51140;45.340;5.980;2023-08-08T12:11:10;4.30;;;0.90;;
64712;SDS011;51140;45.340;5.980;2023-08-08T12:13:37;3.38;;;1.00;;
64712;SDS011;51140;45.340;5.980;2023-08-08T12:16:05;2.40;;;1.02;;
64712;SDS011;51140;45.340;5.980;2023-08-08T12:18:32;5.00;;;1.08;;
64712;SDS011;51140;45.340;5.980;2023-08-08T12:20:57;3.70;;;0.90;;
64712;SDS011;51140;45.340;5.980;2023-08-08T12:23:23;2.88;;;1.00;;
64712;SDS011;51140;45.340;5.980;2023-08-08T12:25:50;3.47;;;1.20;;
64712;SDS011;51140;45.340;5.980;2023-08-08T12:28:15;2.30;;;1.00;;
64712;SDS011;51140;45.340;5.980;2023-08-08T12:30:41;3.33;;;1.05;;
64712;SDS011;51140;45.340;5.980;2023-08-08T12:33:06;5.38;;;1.10;;
64712;SDS011;51140;45.340;5.980;2023-08-08T12:35:32;2.85;;;1.30;;
64712;SDS011;51140;45.340;5.980;2023-08-08T12:37:57;3.25;;;1.25;;
64712;SDS011;51140;45.340;5.980;2023-08-08T12:40:22;5.03;;;1.48;;
64712;SDS011;51140;45.340;5.980;2023-08-08T12:42:50;3.10;;;1.30;;
64712;SDS011;51140;45.340;5.980;2023-08-08T12:45:15;5.15;;;1.00;;
64712;SDS011;51140;45.340;5.980;2023-08-08T12:47:43;6.22;;;1.35;;
64712;SDS011;51140;45.340;5.980;2023-08-08T12:50:08;3.13;;;1.23;;
64712;SDS011;51140;45.340;5.980;2023-08-08T12:52:34;3.17;;;1.00;;
64712;SDS011;51140;45.340;5.980;2023-08-08T12:55:01;5.50;;;1.40;;
64712;SDS011;51140;45.340;5.980;2023-08-08T12:57:28;3.10;;;1.20;;
64712;SDS011;51140;45.340;5.980;2023-08-08T12:59:53;3.97;;;1.48;;
64712;SDS011;51140;45.340;5.980;2023-08-08T13:02:19;4.18;;;1.23;;
64712;SDS011;51140;45.340;5.980;2023-08-08T13:04:44;4.85;;;1.42;;
64712;SDS011;51140;45.340;5.980;2023-08-08T13:07:09;3.95;;;1.10;;
64712;SDS011;51140;45.340;5.980;2023-08-08T13:09:35;2.20;;;1.02;;
64712;SDS011;51140;45.340;5.980;2023-08-08T13:12:00;3.15;;;1.20;;
64712;SDS011;51140;45.340;5.980;2023-08-08T13:14:25;2.95;;;1.17;;
64712;SDS011;51140;45.340;5.980;2023-08-08T13:16:51;2.58;;;1.10;;
64712;SDS011;51140;45.340;5.980;2023-08-08T13:19:17;3.17;;;1.23;;
64712;SDS011;51140;45.340;5.980;2023-08-08T13:21:46;2.67;;;1.23;;
64712;SDS011;51140;45.340;5.980;2023-08-08T13:24:11;4.80;;;1.30;;
64712;SDS011;51140;45.340;5.980;2023-08-08T13:26:38;3.25;;;1.27;;
64712;SDS011;51140;45.340;5.980;2023-08-08T13:29:07;2.72;;;1.10;;
64712;SDS011;51140;45.340;5.980;2023-08-08T13:31:32;2.85;;;1.20;;
64712;SDS011;51140;45.340;5.980;2023-08-08T13:33:58;2.50;;;1.05;;
64712;SDS011;51140;45.340;5.980;2023-08-08T13:36:23;2.45;;;1.00;;
64712;SDS011;51140;45.340;5.980;2023-08-08T13:38:49;5.45;;;1.25;;
64712;SDS011;51140;45.340;5.980;2023-08-08T13:41:14;4.65;;;1.20;;
64712;SDS011;51140;45.340;5.980;2023-08-08T13:43:40;2.80;;;1.02;;
64712;SDS011;51140;45.340;5.980;2023-08-08T13:46:05;5.38;;;1.20;;
64712;SDS011;51140;45.340;5.980;2023-08-08T13:48:33;4.03;;;1.20;;
64712;SDS011;51140;45.340;5.980;2023-08-08T13:50:59;2.78;;;1.17;;
64712;SDS011;51140;45.340;5.980;2023-08-08T13:53:25;4.18;;;1.23;;
64712;SDS011;51140;45.340;5.980;2023-08-08T13:55:50;4.03;;;1.00;;
64712;SDS011;51140;45.340;5.980;2023-08-08T13:58:15;4.43;;;1.20;;
64712;SDS011;51140;45.340;5.980;2023-08-08T14:00:41;4.55;;;1.20;;
64712;SDS011;51140;45.340;5.980;2023-08-08T14:03:06;5.80;;;1.00;;
64712;SDS011;51140;45.340;5.980;2023-08-08T14:05:32;3.10;;;1.08;;
64712;SDS011;51140;45.340;5.980;2023-08-08T14:07:57;2.67;;;1.17;;
64712;SDS011;51140;45.340;5.980;2023-08-08T14:10:23;3.20;;;1.05;;
64712;SDS011;51140;45.340;5.980;2023-08-08T14:12:48;2.03;;;0.90;;
64712;SDS011;51140;45.340;5.980;2023-08-08T14:15:13;3.17;;;1.00;;
64712;SDS011;51140;45.340;5.980;2023-08-08T14:17:39;4.07;;;1.10;;
64712;SDS011;51140;45.340;5.980;2023-08-08T14:20:04;2.40;;;0.88;;
64712;SDS011;51140;45.340;5.980;2023-08-08T14:22:30;3.40;;;1.08;;
64712;SDS011;51140;45.340;5.980;2023-08-08T14:24:58;5.38;;;1.00;;
64712;SDS011;51140;45.340;5.980;2023-08-08T14:27:24;5.22;;;1.30;;
64712;SDS011;51140;45.340;5.980;2023-08-08T14:29:49;4.07;;;0.88;;
64712;SDS011;51140;45.340;5.980;2023-08-08T14:32:15;2.58;;;1.15;;
64712;SDS011;51140;45.340;5.980;2023-08-08T14:34:40;3.03;;;1.20;;
64712;SDS011;51140;45.340;5.980;2023-08-08T14:37:05;3.53;;;0.95;;
64712;SDS011;51140;45.340;5.980;2023-08-08T14:39:31;3.78;;;1.02;;
64712;SDS011;51140;45.340;5.980;2023-08-08T14:41:57;2.50;;;1.10;;
64712;SDS011;51140;45.340;5.980;2023-08-08T14:44:23;2.45;;;1.02;;